sensor_id;sensor_type;location;lat;lon;timestamp;temperature;humidity
5492;DHT22;2768;53.540;10.224;2022-08-21T00:05:41;16.60;99.90
5492;DHT22;2768;53.540;10.224;2022-08-21T00:11:37;16.40;99.90
5492;DHT22;2768;53.540;10.224;2022-08-21T00:17:31;16.40;99.90
5492;DHT22;2768;53.540;10.224;2022-08-21T00:23:26;16.50;99.90
5492;DHT22;2768;53.540;10.224;2022-08-21T00:29:19;16.30;99.90
5492;DHT22;2768;53.540;10.224;2022-08-21T00:35:15;16.70;99.90
5492;DHT22;2768;53.540;10.224;2022-08-21T00:41:11;16.80;99.90
5492;DHT22;2768;53.540;10.224;2022-08-21T00:47:25;17.00;99.90
5492;DHT22;2768;53.540;10.224;2022-08-21T00:53:18;17.10;99.90
5492;DHT22;2768;53.540;10.224;2022-08-21T00:59:13;17.10;99.90
5492;DHT22;2768;53.540;10.224;2022-08-21T01:05:07;17.00;99.90
5492;DHT22;2768;53.540;10.224;2022-08-21T01:11:02;17.00;99.90
5492;DHT22;2768;53.540;10.224;2022-08-21T01:16:58;16.60;99.90
5492;DHT22;2768;53.540;10.224;2022-08-21T01:22:53;16.80;99.90
5492;DHT22;2768;53.540;10.224;2022-08-21T01:28:54;16.90;99.90
5492;DHT22;2768;53.540;10.224;2022-08-21T01:34:50;16.70;99.90
5492;DHT22;2768;53.540;10.224;2022-08-21T01:40:45;16.30;99.90
5492;DHT22;2768;53.540;10.224;2022-08-21T01:46:38;16.00;99.90
5492;DHT22;2768;53.540;10.224;2022-08-21T01:52:32;16.00;99.90
5492;DHT22;2768;53.540;10.224;2022-08-21T01:58:26;15.80;99.90
5492;DHT22;2768;53.540;10.224;2022-08-21T02:04:20;16.20;99.90
5492;DHT22;2768;53.540;10.224;2022-08-21T02:10:16;16.20;99.90
5492;DHT22;2768;53.540;10.224;2022-08-21T02:16:14;15.80;99.90
5492;DHT22;2768;53.540;10.224;2022-08-21T02:22:10;15.80;99.90
5492;DHT22;2768;53.540;10.224;2022-08-21T02:28:06;15.70;99.90
5492;DHT22;2768;53.540;10.224;2022-08-21T02:34:02;15.70;99.90
5492;DHT22;2768;53.540;10.224;2022-08-21T02:39:55;15.50;99.90
5492;DHT22;2768;53.540;10.224;2022-08-21T02:45:49;15.50;99.90
5492;DHT22;2768;53.540;10.224;2022-08-21T02:51:44;15.30;99.90
5492;DHT22;2768;53.540;10.224;2022-08-21T02:57:37;15.40;99.90
5492;DHT22;2768;53.540;10.224;2022-08-21T03:03:34;15.40;99.90
5492;DHT22;2768;53.540;10.224;2022-08-21T03:09:29;15.40;99.90
5492;DHT22;2768;53.540;10.224;2022-08-21T03:15:23;15.40;99.90
5492;DHT22;2768;53.540;10.224;2022-08-21T03:21:17;15.80;99.90
5492;DHT22;2768;53.540;10.224;2022-08-21T03:27:12;15.80;99.90
5492;DHT22;2768;53.540;10.224;2022-08-21T03:33:05;15.80;99.90
5492;DHT22;2768;53.540;10.224;2022-08-21T03:38:59;15.60;99.90
5492;DHT22;2768;53.540;10.224;2022-08-21T03:44:53;15.40;99.90
5492;DHT22;2768;53.540;10.224;2022-08-21T03:50:47;15.90;99.90
5492;DHT22;2768;53.540;10.224;2022-08-21T03:56:41;16.20;99.90
5492;DHT22;2768;53.540;10.224;2022-08-21T04:02:35;16.10;99.90
5492;DHT22;2768;53.540;10.224;2022-08-21T04:08:29;16.20;99.90
5492;DHT22;2768;53.540;10.224;2022-08-21T04:14:22;15.80;99.90
5492;DHT22;2768;53.540;10.224;2022-08-21T04:20:18;16.00;99.90
5492;DHT22;2768;53.540;10.224;2022-08-21T04:26:13;16.00;99.90
5492;DHT22;2768;53.540;10.224;2022-08-21T04:32:07;16.00;99.90
5492;DHT22;2768;53.540;10.224;2022-08-21T04:38:01;15.90;99.90
5492;DHT22;2768;53.540;10.224;2022-08-21T04:43:54;15.90;99.90
5492;DHT22;2768;53.540;10.224;2022-08-21T04:49:48;15.80;99.90
5492;DHT22;2768;53.540;10.224;2022-08-21T04:55:43;15.80;99.90
5492;DHT22;2768;53.540;10.224;2022-08-21T05:01:39;15.80;99.90
5492;DHT22;2768;53.540;10.224;2022-08-21T05:07:33;16.00;99.90
5492;DHT22;2768;53.540;10.224;2022-08-21T05:13:35;15.90;99.90
5492;DHT22;2768;53.540;10.224;2022-08-21T05:19:28;15.90;99.90
5492;DHT22;2768;53.540;10.224;2022-08-21T05:25:22;15.90;99.90
5492;DHT22;2768;53.540;10.224;2022-08-21T05:31:17;16.00;99.90
5492;DHT22;2768;53.540;10.224;2022-08-21T05:37:10;16.00;99.90
5492;DHT22;2768;53.540;10.224;2022-08-21T05:43:04;16.00;99.90
5492;DHT22;2768;53.540;10.224;2022-08-21T05:48:59;16.10;99.90
5492;DHT22;2768;53.540;10.224;2022-08-21T05:54:52;16.20;99.90
5492;DHT22;2768;53.540;10.224;2022-08-21T06:00:47;16.30;99.90
5492;DHT22;2768;53.540;10.224;2022-08-21T06:06:41;16.40;99.90
5492;DHT22;2768;53.540;10.224;2022-08-21T06:12:35;16.50;99.90
5492;DHT22;2768;53.540;10.224;2022-08-21T06:18:33;16.60;99.90
5492;DHT22;2768;53.540;10.224;2022-08-21T06:24:28;16.70;99.90
5492;DHT22;2768;53.540;10.224;2022-08-21T06:30:21;16.70;99.90
5492;DHT22;2768;53.540;10.224;2022-08-21T06:36:15;16.90;99.90
5492;DHT22;2768;53.540;10.224;2022-08-21T06:42:14;16.90;99.90
5492;DHT22;2768;53.540;10.224;2022-08-21T06:48:09;16.80;99.90
5492;DHT22;2768;53.540;10.224;2022-08-21T06:54:07;17.00;99.90
5492;DHT22;2768;53.540;10.224;2022-08-21T07:00:03;17.00;99.90
5492;DHT22;2768;53.540;10.224;2022-08-21T07:05:57;17.10;99.90
5492;DHT22;2768;53.540;10.224;2022-08-21T07:11:54;17.20;99.90
5492;DHT22;2768;53.540;10.224;2022-08-21T07:17:49;17.20;99.90
5492;DHT22;2768;53.540;10.224;2022-08-21T07:23:44;17.20;99.90
5492;DHT22;2768;53.540;10.224;2022-08-21T07:29:37;17.40;99.90
5492;DHT22;2768;53.540;10.224;2022-08-21T07:35:32;17.60;99.90
5492;DHT22;2768;53.540;10.224;2022-08-21T07:41:27;17.70;99.90
5492;DHT22;2768;53.540;10.224;2022-08-21T07:47:21;17.90;99.90
5492;DHT22;2768;53.540;10.224;2022-08-21T07:53:34;17.90;99.90
5492;DHT22;2768;53.540;10.224;2022-08-21T07:59:28;18.10;84.00
5492;DHT22;2768;53.540;10.224;2022-08-21T08:05:25;18.30;66.20
5492;DHT22;2768;53.540;10.224;2022-08-21T08:11:20;18.40;66.30
5492;DHT22;2768;53.540;10.224;2022-08-21T08:17:14;18.60;58.90
5492;DHT22;2768;53.540;10.224;2022-08-21T08:23:09;18.80;65.70
5492;DHT22;2768;53.540;10.224;2022-08-21T08:29:04;18.70;51.30
5492;DHT22;2768;53.540;10.224;2022-08-21T08:34:58;19.00;50.10
5492;DHT22;2768;53.540;10.224;2022-08-21T08:40:55;19.10;54.50
5492;DHT22;2768;53.540;10.224;2022-08-21T08:46:53;19.20;53.80
5492;DHT22;2768;53.540;10.224;2022-08-21T08:52:52;19.50;56.20
5492;DHT22;2768;53.540;10.224;2022-08-21T08:58:50;19.60;49.80
5492;DHT22;2768;53.540;10.224;2022-08-21T09:04:47;19.60;48.20
5492;DHT22;2768;53.540;10.224;2022-08-21T09:10:50;19.60;48.60
5492;DHT22;2768;53.540;10.224;2022-08-21T09:16:49;19.80;52.70
5492;DHT22;2768;53.540;10.224;2022-08-21T09:22:56;20.00;51.10
5492;DHT22;2768;53.540;10.224;2022-08-21T09:28:53;20.10;44.00
5492;DHT22;2768;53.540;10.224;2022-08-21T09:35:00;20.20;45.80
5492;DHT22;2768;53.540;10.224;2022-08-21T09:41:01;20.60;44.70
5492;DHT22;2768;53.540;10.224;2022-08-21T09:46:55;20.50;39.50
5492;DHT22;2768;53.540;10.224;2022-08-21T09:52:50;20.80;45.30
5492;DHT22;2768;53.540;10.224;2022-08-21T09:58:47;20.90;40.40
5492;DHT22;2768;53.540;10.224;2022-08-21T10:04:49;21.20;32.50
5492;DHT22;2768;53.540;10.224;2022-08-21T10:10:43;21.70;19.30
5492;DHT22;2768;53.540;10.224;2022-08-21T10:16:46;21.70;23.00
5492;DHT22;2768;53.540;10.224;2022-08-21T10:22:49;21.70;15.10
5492;DHT22;2768;53.540;10.224;2022-08-21T10:28:48;21.90;12.30
5492;DHT22;2768;53.540;10.224;2022-08-21T10:34:51;21.90;3.40
5492;DHT22;2768;53.540;10.224;2022-08-21T10:40:51;21.90;1.00
5492;DHT22;2768;53.540;10.224;2022-08-21T10:46:52;21.90;1.00
5492;DHT22;2768;53.540;10.224;2022-08-21T10:59:23;22.30;1.00
5492;DHT22;2768;53.540;10.224;2022-08-21T11:05:24;22.30;1.00
5492;DHT22;2768;53.540;10.224;2022-08-21T11:11:24;22.50;1.00
5492;DHT22;2768;53.540;10.224;2022-08-21T11:17:32;22.80;1.00
5492;DHT22;2768;53.540;10.224;2022-08-21T11:23:33;22.80;1.00
5492;DHT22;2768;53.540;10.224;2022-08-21T11:29:33;23.10;1.00
5492;DHT22;2768;53.540;10.224;2022-08-21T11:35:33;23.40;1.00
5492;DHT22;2768;53.540;10.224;2022-08-21T11:41:30;23.00;1.00
5492;DHT22;2768;53.540;10.224;2022-08-21T11:47:36;23.40;1.00
5492;DHT22;2768;53.540;10.224;2022-08-21T11:53:38;23.10;1.00
5492;DHT22;2768;53.540;10.224;2022-08-21T11:59:36;23.20;1.00
5492;DHT22;2768;53.540;10.224;2022-08-21T12:05:36;23.60;1.00
5492;DHT22;2768;53.540;10.224;2022-08-21T12:11:31;24.30;1.00
5492;DHT22;2768;53.540;10.224;2022-08-21T12:17:36;23.70;1.00
5492;DHT22;2768;53.540;10.224;2022-08-21T12:23:33;24.30;1.00
5492;DHT22;2768;53.540;10.224;2022-08-21T12:29:30;23.60;1.00
5492;DHT22;2768;53.540;10.224;2022-08-21T12:35:27;24.20;1.00
5492;DHT22;2768;53.540;10.224;2022-08-21T12:41:28;24.30;1.00
5492;DHT22;2768;53.540;10.224;2022-08-21T12:47:28;24.30;1.00
5492;DHT22;2768;53.540;10.224;2022-08-21T12:53:28;25.00;1.00
5492;DHT22;2768;53.540;10.224;2022-08-21T12:59:25;24.70;1.00
5492;DHT22;2768;53.540;10.224;2022-08-21T13:05:27;24.80;1.00
5492;DHT22;2768;53.540;10.224;2022-08-21T13:11:22;25.10;1.00
5492;DHT22;2768;53.540;10.224;2022-08-21T13:17:27;24.90;1.00
5492;DHT22;2768;53.540;10.224;2022-08-21T13:23:26;24.30;1.00
5492;DHT22;2768;53.540;10.224;2022-08-21T13:29:22;24.70;1.00
5492;DHT22;2768;53.540;10.224;2022-08-21T13:35:20;25.70;1.00
5492;DHT22;2768;53.540;10.224;2022-08-21T13:41:20;25.50;1.00
5492;DHT22;2768;53.540;10.224;2022-08-21T13:47:15;25.50;1.00
5492;DHT22;2768;53.540;10.224;2022-08-21T13:53:23;25.60;1.00
5492;DHT22;2768;53.540;10.224;2022-08-21T13:59:25;26.00;1.00
5492;DHT22;2768;53.540;10.224;2022-08-21T14:05:21;27.00;1.00
5492;DHT22;2768;53.540;10.224;2022-08-21T14:11:17;26.40;1.00
5492;DHT22;2768;53.540;10.224;2022-08-21T14:17:13;27.60;1.00
5492;DHT22;2768;53.540;10.224;2022-08-21T14:23:25;26.80;1.00
5492;DHT22;2768;53.540;10.224;2022-08-21T14:29:23;26.80;1.00
5492;DHT22;2768;53.540;10.224;2022-08-21T14:35:17;26.40;1.00
5492;DHT22;2768;53.540;10.224;2022-08-21T14:41:18;26.50;1.00
5492;DHT22;2768;53.540;10.224;2022-08-21T14:47:13;27.20;1.00
5492;DHT22;2768;53.540;10.224;2022-08-21T14:53:06;27.20;1.00
5492;DHT22;2768;53.540;10.224;2022-08-21T14:59:05;27.50;1.00
5492;DHT22;2768;53.540;10.224;2022-08-21T15:05:00;26.60;1.00
5492;DHT22;2768;53.540;10.224;2022-08-21T15:10:54;26.10;1.00
5492;DHT22;2768;53.540;10.224;2022-08-21T15:17:05;26.10;1.00
5492;DHT22;2768;53.540;10.224;2022-08-21T15:23:01;25.60;1.00
5492;DHT22;2768;53.540;10.224;2022-08-21T15:28:55;25.60;1.00
5492;DHT22;2768;53.540;10.224;2022-08-21T15:34:49;25.90;1.00
5492;DHT22;2768;53.540;10.224;2022-08-21T15:40:45;25.40;1.00
5492;DHT22;2768;53.540;10.224;2022-08-21T15:46:43;25.40;1.00
5492;DHT22;2768;53.540;10.224;2022-08-21T15:52:37;25.30;1.00
5492;DHT22;2768;53.540;10.224;2022-08-21T15:58:32;25.20;1.00
5492;DHT22;2768;53.540;10.224;2022-08-21T16:04:27;25.40;1.00
5492;DHT22;2768;53.540;10.224;2022-08-21T16:10:22;25.20;1.00
5492;DHT22;2768;53.540;10.224;2022-08-21T16:16:23;25.10;1.00
5492;DHT22;2768;53.540;10.224;2022-08-21T16:22:17;25.10;1.00
5492;DHT22;2768;53.540;10.224;2022-08-21T16:28:13;25.10;1.00
5492;DHT22;2768;53.540;10.224;2022-08-21T16:34:12;25.20;1.00
5492;DHT22;2768;53.540;10.224;2022-08-21T16:40:08;25.20;1.00
5492;DHT22;2768;53.540;10.224;2022-08-21T16:46:02;25.10;1.00
5492;DHT22;2768;53.540;10.224;2022-08-21T16:51:57;24.90;1.00
5492;DHT22;2768;53.540;10.224;2022-08-21T16:57:52;24.80;1.00
5492;DHT22;2768;53.540;10.224;2022-08-21T17:03:47;24.60;1.00
5492;DHT22;2768;53.540;10.224;2022-08-21T17:09:43;24.50;1.00
5492;DHT22;2768;53.540;10.224;2022-08-21T17:15:37;24.50;1.00
5492;DHT22;2768;53.540;10.224;2022-08-21T17:21:31;24.40;1.00
5492;DHT22;2768;53.540;10.224;2022-08-21T17:27:26;24.40;1.00
5492;DHT22;2768;53.540;10.224;2022-08-21T17:33:21;24.30;1.00
5492;DHT22;2768;53.540;10.224;2022-08-21T17:39:16;24.30;1.00
5492;DHT22;2768;53.540;10.224;2022-08-21T17:45:19;24.30;1.00
5492;DHT22;2768;53.540;10.224;2022-08-21T17:51:13;24.20;1.00
5492;DHT22;2768;53.540;10.224;2022-08-21T17:57:16;24.10;1.00
5492;DHT22;2768;53.540;10.224;2022-08-21T18:03:17;24.00;1.00
5492;DHT22;2768;53.540;10.224;2022-08-21T18:09:11;23.80;1.00
5492;DHT22;2768;53.540;10.224;2022-08-21T18:15:07;23.70;1.00
5492;DHT22;2768;53.540;10.224;2022-08-21T18:21:03;23.60;1.00
5492;DHT22;2768;53.540;10.224;2022-08-21T18:26:56;23.40;1.00
5492;DHT22;2768;53.540;10.224;2022-08-21T18:32:51;23.20;1.00
5492;DHT22;2768;53.540;10.224;2022-08-21T18:38:48;23.10;1.00
5492;DHT22;2768;53.540;10.224;2022-08-21T18:44:43;23.00;1.00
5492;DHT22;2768;53.540;10.224;2022-08-21T18:50:39;23.00;1.00
5492;DHT22;2768;53.540;10.224;2022-08-21T18:56:36;22.80;1.00
5492;DHT22;2768;53.540;10.224;2022-08-21T19:02:32;22.60;1.00
5492;DHT22;2768;53.540;10.224;2022-08-21T19:08:25;22.40;1.00
5492;DHT22;2768;53.540;10.224;2022-08-21T19:14:21;22.40;1.00
5492;DHT22;2768;53.540;10.224;2022-08-21T19:20:22;22.30;1.00
5492;DHT22;2768;53.540;10.224;2022-08-21T19:26:16;22.20;1.00
5492;DHT22;2768;53.540;10.224;2022-08-21T19:32:11;22.20;1.00
5492;DHT22;2768;53.540;10.224;2022-08-21T19:38:04;22.20;1.00
5492;DHT22;2768;53.540;10.224;2022-08-21T19:44:03;22.10;1.00
5492;DHT22;2768;53.540;10.224;2022-08-21T19:50:03;22.00;1.00
5492;DHT22;2768;53.540;10.224;2022-08-21T19:56:12;22.00;1.00
5492;DHT22;2768;53.540;10.224;2022-08-21T20:02:07;21.80;1.00
5492;DHT22;2768;53.540;10.224;2022-08-21T20:08:03;21.60;1.00
5492;DHT22;2768;53.540;10.224;2022-08-21T20:14:02;21.60;2.90
5492;DHT22;2768;53.540;10.224;2022-08-21T20:19:58;21.50;6.90
5492;DHT22;2768;53.540;10.224;2022-08-21T20:25:53;21.40;11.70
5492;DHT22;2768;53.540;10.224;2022-08-21T20:31:46;21.30;14.80
5492;DHT22;2768;53.540;10.224;2022-08-21T20:37:40;21.20;21.00
5492;DHT22;2768;53.540;10.224;2022-08-21T20:43:36;21.10;26.40
5492;DHT22;2768;53.540;10.224;2022-08-21T20:49:36;21.10;38.40
5492;DHT22;2768;53.540;10.224;2022-08-21T20:55:32;21.00;44.20
5492;DHT22;2768;53.540;10.224;2022-08-21T21:01:32;21.10;52.50
5492;DHT22;2768;53.540;10.224;2022-08-21T21:07:33;20.80;54.80
5492;DHT22;2768;53.540;10.224;2022-08-21T21:13:31;21.00;57.20
5492;DHT22;2768;53.540;10.224;2022-08-21T21:19:30;21.10;63.00
5492;DHT22;2768;53.540;10.224;2022-08-21T21:25:31;21.00;62.00
5492;DHT22;2768;53.540;10.224;2022-08-21T21:31:31;21.00;76.90
5492;DHT22;2768;53.540;10.224;2022-08-21T21:37:35;20.80;68.50
5492;DHT22;2768;53.540;10.224;2022-08-21T21:43:40;20.80;76.40
5492;DHT22;2768;53.540;10.224;2022-08-21T21:49:56;20.70;82.50
5492;DHT22;2768;53.540;10.224;2022-08-21T21:56:06;20.60;87.10
5492;DHT22;2768;53.540;10.224;2022-08-21T22:02:05;20.50;91.30
5492;DHT22;2768;53.540;10.224;2022-08-21T22:08:06;20.60;99.20
5492;DHT22;2768;53.540;10.224;2022-08-21T22:14:05;20.70;99.90
5492;DHT22;2768;53.540;10.224;2022-08-21T22:20:05;20.50;99.90
5492;DHT22;2768;53.540;10.224;2022-08-21T22:26:05;20.70;99.90
5492;DHT22;2768;53.540;10.224;2022-08-21T22:32:03;20.70;99.90
5492;DHT22;2768;53.540;10.224;2022-08-21T22:37:59;20.70;99.90
5492;DHT22;2768;53.540;10.224;2022-08-21T22:43:55;20.70;99.90
5492;DHT22;2768;53.540;10.224;2022-08-21T22:49:54;20.60;99.90
5492;DHT22;2768;53.540;10.224;2022-08-21T22:55:56;20.50;99.90
5492;DHT22;2768;53.540;10.224;2022-08-21T23:01:56;20.60;99.90
5492;DHT22;2768;53.540;10.224;2022-08-21T23:07:52;20.70;99.90
5492;DHT22;2768;53.540;10.224;2022-08-21T23:13:49;20.60;99.90
5492;DHT22;2768;53.540;10.224;2022-08-21T23:19:49;20.50;99.90
5492;DHT22;2768;53.540;10.224;2022-08-21T23:26:09;20.40;99.90
5492;DHT22;2768;53.540;10.224;2022-08-21T23:32:21;20.50;99.90
5492;DHT22;2768;53.540;10.224;2022-08-21T23:38:33;20.50;99.90
5492;DHT22;2768;53.540;10.224;2022-08-21T23:44:45;20.20;99.90
5492;DHT22;2768;53.540;10.224;2022-08-21T23:50:52;20.20;99.90
5492;DHT22;2768;53.540;10.224;2022-08-21T23:57:02;20.10;99.90
